sensor_id;sensor_type;location;lat;lon;timestamp;P1;durP1;ratioP1;P2;durP2;ratioP2
78612;SDS011;67933;51.060;3.638;2023-03-13T00:01:33;16.02;;;5.25;;
78612;SDS011;67933;51.060;3.638;2023-03-13T00:04:03;14.07;;;4.53;;
78612;SDS011;67933;51.060;3.638;2023-03-13T00:06:29;17.85;;;4.72;;
78612;SDS011;67933;51.060;3.638;2023-03-13T00:08:57;18.58;;;5.30;;
78612;SDS011;67933;51.060;3.638;2023-03-13T00:11:25;12.40;;;4.50;;
78612;SDS011;67933;51.060;3.638;2023-03-13T00:13:55;17.35;;;4.93;;
78612;SDS011;67933;51.060;3.638;2023-03-13T00:16:24;13.18;;;5.00;;
78612;SDS011;67933;51.060;3.638;2023-03-13T00:18:52;13.68;;;5.72;;
78612;SDS011;67933;51.060;3.638;2023-03-13T00:21:20;12.98;;;4.97;;
78612;SDS011;67933;51.060;3.638;2023-03-13T00:23:47;17.30;;;6.63;;
78612;SDS011;67933;51.060;3.638;2023-03-13T00:26:14;12.07;;;5.57;;
78612;SDS011;67933;51.060;3.638;2023-03-13T00:28:45;17.33;;;5.43;;
78612;SDS011;67933;51.060;3.638;2023-03-13T00:31:15;12.00;;;4.97;;
78612;SDS011;67933;51.060;3.638;2023-03-13T00:33:46;19.58;;;5.35;;
78612;SDS011;67933;51.060;3.638;2023-03-13T00:36:17;16.65;;;5.07;;
78612;SDS011;67933;51.060;3.638;2023-03-13T00:38:44;11.38;;;5.05;;
78612;SDS011;67933;51.060;3.638;2023-03-13T00:41:14;10.55;;;5.70;;
78612;SDS011;67933;51.060;3.638;2023-03-13T00:43:45;13.27;;;5.68;;
78612;SDS011;67933;51.060;3.638;2023-03-13T00:46:13;14.95;;;4.88;;
78612;SDS011;67933;51.060;3.638;2023-03-13T00:48:41;15.15;;;4.82;;
78612;SDS011;67933;51.060;3.638;2023-03-13T00:51:07;13.18;;;6.60;;
78612;SDS011;67933;51.060;3.638;2023-03-13T00:53:36;7.25;;;4.55;;
78612;SDS011;67933;51.060;3.638;2023-03-13T00:56:02;13.75;;;4.68;;
78612;SDS011;67933;51.060;3.638;2023-03-13T00:58:31;11.75;;;4.53;;
78612;SDS011;67933;51.060;3.638;2023-03-13T01:01:33;12.68;;;4.78;;
78612;SDS011;67933;51.060;3.638;2023-03-13T01:03:55;8.82;;;4.80;;
78612;SDS011;67933;51.060;3.638;2023-03-13T01:06:24;5.68;;;3.47;;
78612;SDS011;67933;51.060;3.638;2023-03-13T01:08:51;11.88;;;4.32;;
78612;SDS011;67933;51.060;3.638;2023-03-13T01:11:20;10.40;;;4.43;;
78612;SDS011;67933;51.060;3.638;2023-03-13T01:13:58;12.88;;;4.28;;
78612;SDS011;67933;51.060;3.638;2023-03-13T01:16:26;7.10;;;3.67;;
78612;SDS011;67933;51.060;3.638;2023-03-13T01:19:01;8.10;;;4.18;;
78612;SDS011;67933;51.060;3.638;2023-03-13T01:21:29;8.40;;;3.88;;
78612;SDS011;67933;51.060;3.638;2023-03-13T01:23:55;8.27;;;3.65;;
78612;SDS011;67933;51.060;3.638;2023-03-13T01:26:21;7.50;;;3.90;;
78612;SDS011;67933;51.060;3.638;2023-03-13T01:28:47;11.27;;;4.30;;
78612;SDS011;67933;51.060;3.638;2023-03-13T01:31:14;7.78;;;3.22;;
78612;SDS011;67933;51.060;3.638;2023-03-13T01:33:42;6.28;;;3.42;;
78612;SDS011;67933;51.060;3.638;2023-03-13T01:36:08;9.98;;;4.22;;
78612;SDS011;67933;51.060;3.638;2023-03-13T01:38:34;7.68;;;3.30;;
78612;SDS011;67933;51.060;3.638;2023-03-13T01:41:00;6.47;;;2.72;;
78612;SDS011;67933;51.060;3.638;2023-03-13T01:43:28;9.45;;;3.45;;
78612;SDS011;67933;51.060;3.638;2023-03-13T01:48:25;4.68;;;2.67;;
78612;SDS011;67933;51.060;3.638;2023-03-13T01:51:00;8.35;;;3.50;;
78612;SDS011;67933;51.060;3.638;2023-03-13T01:53:29;3.70;;;2.20;;
78612;SDS011;67933;51.060;3.638;2023-03-13T01:55:58;4.70;;;2.50;;
78612;SDS011;67933;51.060;3.638;2023-03-13T01:58:28;6.53;;;2.47;;
78612;SDS011;67933;51.060;3.638;2023-03-13T02:00:54;7.00;;;2.90;;
78612;SDS011;67933;51.060;3.638;2023-03-13T02:03:20;3.58;;;2.00;;
78612;SDS011;67933;51.060;3.638;2023-03-13T02:05:46;5.90;;;2.50;;
78612;SDS011;67933;51.060;3.638;2023-03-13T02:08:15;4.43;;;2.50;;
78612;SDS011;67933;51.060;3.638;2023-03-13T02:10:49;3.75;;;2.63;;
78612;SDS011;67933;51.060;3.638;2023-03-13T02:13:19;6.03;;;2.88;;
78612;SDS011;67933;51.060;3.638;2023-03-13T02:15:45;6.38;;;2.70;;
78612;SDS011;67933;51.060;3.638;2023-03-13T02:18:11;5.15;;;2.80;;
78612;SDS011;67933;51.060;3.638;2023-03-13T02:20:38;6.88;;;2.95;;
78612;SDS011;67933;51.060;3.638;2023-03-13T02:25:51;5.45;;;2.97;;
78612;SDS011;67933;51.060;3.638;2023-03-13T02:28:22;11.85;;;5.47;;
78612;SDS011;67933;51.060;3.638;2023-03-13T02:30:52;5.07;;;3.78;;
78612;SDS011;67933;51.060;3.638;2023-03-13T02:33:20;6.97;;;3.50;;
78612;SDS011;67933;51.060;3.638;2023-03-13T02:35:46;7.05;;;3.63;;
78612;SDS011;67933;51.060;3.638;2023-03-13T02:38:14;5.63;;;3.33;;
78612;SDS011;67933;51.060;3.638;2023-03-13T02:40:44;5.30;;;3.40;;
78612;SDS011;67933;51.060;3.638;2023-03-13T02:43:54;5.45;;;2.95;;
78612;SDS011;67933;51.060;3.638;2023-03-13T02:48:34;5.60;;;3.67;;
78612;SDS011;67933;51.060;3.638;2023-03-13T02:51:05;4.10;;;2.80;;
78612;SDS011;67933;51.060;3.638;2023-03-13T02:53:36;7.72;;;4.25;;
78612;SDS011;67933;51.060;3.638;2023-03-13T02:56:02;4.50;;;3.00;;
78612;SDS011;67933;51.060;3.638;2023-03-13T02:58:34;6.47;;;3.25;;
78612;SDS011;67933;51.060;3.638;2023-03-13T03:01:02;8.05;;;3.00;;
78612;SDS011;67933;51.060;3.638;2023-03-13T03:03:31;4.85;;;2.97;;
78612;SDS011;67933;51.060;3.638;2023-03-13T03:05:58;6.15;;;3.22;;
78612;SDS011;67933;51.060;3.638;2023-03-13T03:08:24;5.20;;;2.70;;
78612;SDS011;67933;51.060;3.638;2023-03-13T03:10:49;5.50;;;2.58;;
78612;SDS011;67933;51.060;3.638;2023-03-13T03:13:14;3.22;;;2.35;;
78612;SDS011;67933;51.060;3.638;2023-03-13T03:15:40;4.50;;;2.65;;
78612;SDS011;67933;51.060;3.638;2023-03-13T03:18:05;6.45;;;3.10;;
78612;SDS011;67933;51.060;3.638;2023-03-13T03:20:30;6.13;;;2.88;;
78612;SDS011;67933;51.060;3.638;2023-03-13T03:22:56;4.10;;;2.60;;
78612;SDS011;67933;51.060;3.638;2023-03-13T03:25:21;4.45;;;2.75;;
78612;SDS011;67933;51.060;3.638;2023-03-13T03:27:47;4.28;;;2.60;;
78612;SDS011;67933;51.060;3.638;2023-03-13T03:30:12;6.18;;;3.00;;
78612;SDS011;67933;51.060;3.638;2023-03-13T03:32:38;6.07;;;3.00;;
78612;SDS011;67933;51.060;3.638;2023-03-13T03:35:03;6.47;;;3.42;;
78612;SDS011;67933;51.060;3.638;2023-03-13T03:37:29;5.72;;;3.00;;
78612;SDS011;67933;51.060;3.638;2023-03-13T03:39:55;5.78;;;3.15;;
78612;SDS011;67933;51.060;3.638;2023-03-13T03:42:20;4.97;;;2.75;;
78612;SDS011;67933;51.060;3.638;2023-03-13T03:44:45;7.10;;;2.67;;
78612;SDS011;67933;51.060;3.638;2023-03-13T03:47:11;4.25;;;2.35;;
78612;SDS011;67933;51.060;3.638;2023-03-13T03:49:36;4.13;;;2.50;;
78612;SDS011;67933;51.060;3.638;2023-03-13T03:52:05;4.03;;;2.50;;
78612;SDS011;67933;51.060;3.638;2023-03-13T03:54:30;5.50;;;2.60;;
78612;SDS011;67933;51.060;3.638;2023-03-13T03:56:56;4.32;;;2.38;;
78612;SDS011;67933;51.060;3.638;2023-03-13T03:59:21;5.05;;;2.30;;
78612;SDS011;67933;51.060;3.638;2023-03-13T04:01:47;4.03;;;2.30;;
78612;SDS011;67933;51.060;3.638;2023-03-13T04:04:12;5.07;;;2.47;;
78612;SDS011;67933;51.060;3.638;2023-03-13T04:06:38;4.90;;;2.60;;
78612;SDS011;67933;51.060;3.638;2023-03-13T04:09:04;4.55;;;2.28;;
78612;SDS011;67933;51.060;3.638;2023-03-13T04:11:29;4.70;;;2.25;;
78612;SDS011;67933;51.060;3.638;2023-03-13T04:13:55;5.80;;;2.17;;
78612;SDS011;67933;51.060;3.638;2023-03-13T04:16:20;8.48;;;2.40;;
78612;SDS011;67933;51.060;3.638;2023-03-13T04:18:46;7.40;;;2.13;;
78612;SDS011;67933;51.060;3.638;2023-03-13T04:21:11;5.78;;;2.25;;
78612;SDS011;67933;51.060;3.638;2023-03-13T04:23:36;3.10;;;2.08;;
78612;SDS011;67933;51.060;3.638;2023-03-13T04:26:02;4.53;;;2.00;;
78612;SDS011;67933;51.060;3.638;2023-03-13T04:28:27;6.20;;;2.03;;
78612;SDS011;67933;51.060;3.638;2023-03-13T04:30:53;9.18;;;2.63;;
78612;SDS011;67933;51.060;3.638;2023-03-13T04:33:21;7.32;;;2.10;;
78612;SDS011;67933;51.060;3.638;2023-03-13T04:35:47;3.95;;;2.30;;
78612;SDS011;67933;51.060;3.638;2023-03-13T04:38:13;3.78;;;2.17;;
78612;SDS011;67933;51.060;3.638;2023-03-13T04:40:38;4.65;;;2.30;;
78612;SDS011;67933;51.060;3.638;2023-03-13T04:43:04;7.07;;;2.40;;
78612;SDS011;67933;51.060;3.638;2023-03-13T04:45:29;5.82;;;3.42;;
78612;SDS011;67933;51.060;3.638;2023-03-13T04:47:54;6.72;;;2.33;;
78612;SDS011;67933;51.060;3.638;2023-03-13T04:50:20;6.32;;;2.45;;
78612;SDS011;67933;51.060;3.638;2023-03-13T04:52:45;5.50;;;2.70;;
78612;SDS011;67933;51.060;3.638;2023-03-13T04:55:10;4.22;;;2.30;;
78612;SDS011;67933;51.060;3.638;2023-03-13T04:57:36;6.97;;;3.58;;
78612;SDS011;67933;51.060;3.638;2023-03-13T05:00:01;8.20;;;2.30;;
78612;SDS011;67933;51.060;3.638;2023-03-13T05:02:29;4.25;;;2.00;;
78612;SDS011;67933;51.060;3.638;2023-03-13T05:04:54;5.85;;;2.28;;
78612;SDS011;67933;51.060;3.638;2023-03-13T05:07:20;6.75;;;2.72;;
78612;SDS011;67933;51.060;3.638;2023-03-13T05:09:45;4.07;;;2.05;;
78612;SDS011;67933;51.060;3.638;2023-03-13T05:12:10;6.38;;;2.40;;
78612;SDS011;67933;51.060;3.638;2023-03-13T05:14:36;6.70;;;2.20;;
78612;SDS011;67933;51.060;3.638;2023-03-13T05:17:01;7.55;;;2.45;;
78612;SDS011;67933;51.060;3.638;2023-03-13T05:19:26;7.68;;;2.22;;
78612;SDS011;67933;51.060;3.638;2023-03-13T05:21:52;5.22;;;2.20;;
78612;SDS011;67933;51.060;3.638;2023-03-13T05:24:17;8.90;;;2.38;;
78612;SDS011;67933;51.060;3.638;2023-03-13T05:26:43;7.10;;;2.08;;
78612;SDS011;67933;51.060;3.638;2023-03-13T05:29:08;6.38;;;1.88;;
78612;SDS011;67933;51.060;3.638;2023-03-13T05:31:33;7.00;;;2.28;;
78612;SDS011;67933;51.060;3.638;2023-03-13T05:33:59;6.85;;;2.13;;
78612;SDS011;67933;51.060;3.638;2023-03-13T05:36:24;4.90;;;2.10;;
78612;SDS011;67933;51.060;3.638;2023-03-13T05:38:49;6.07;;;2.03;;
78612;SDS011;67933;51.060;3.638;2023-03-13T05:41:15;11.15;;;2.38;;
78612;SDS011;67933;51.060;3.638;2023-03-13T05:43:40;4.97;;;2.15;;
78612;SDS011;67933;51.060;3.638;2023-03-13T05:46:05;4.70;;;2.10;;
78612;SDS011;67933;51.060;3.638;2023-03-13T05:48:31;7.28;;;2.38;;
78612;SDS011;67933;51.060;3.638;2023-03-13T05:50:56;7.63;;;2.22;;
78612;SDS011;67933;51.060;3.638;2023-03-13T05:53:21;4.82;;;1.92;;
78612;SDS011;67933;51.060;3.638;2023-03-13T05:55:47;5.00;;;2.53;;
78612;SDS011;67933;51.060;3.638;2023-03-13T05:58:12;6.63;;;2.40;;
78612;SDS011;67933;51.060;3.638;2023-03-13T06:00:38;4.22;;;1.88;;
78612;SDS011;67933;51.060;3.638;2023-03-13T06:03:03;8.30;;;2.53;;
78612;SDS011;67933;51.060;3.638;2023-03-13T06:05:29;6.88;;;2.72;;
78612;SDS011;67933;51.060;3.638;2023-03-13T06:07:54;7.45;;;3.05;;
78612;SDS011;67933;51.060;3.638;2023-03-13T06:10:19;7.22;;;2.78;;
78612;SDS011;67933;51.060;3.638;2023-03-13T06:12:50;4.97;;;2.38;;
78612;SDS011;67933;51.060;3.638;2023-03-13T06:15:17;5.55;;;2.10;;
78612;SDS011;67933;51.060;3.638;2023-03-13T06:20:10;6.97;;;2.50;;
78612;SDS011;67933;51.060;3.638;2023-03-13T06:22:36;5.97;;;2.92;;
78612;SDS011;67933;51.060;3.638;2023-03-13T06:25:02;7.10;;;2.38;;
78612;SDS011;67933;51.060;3.638;2023-03-13T06:27:27;7.90;;;2.40;;
78612;SDS011;67933;51.060;3.638;2023-03-13T06:29:52;6.80;;;2.55;;
78612;SDS011;67933;51.060;3.638;2023-03-13T06:32:18;6.55;;;2.25;;
78612;SDS011;67933;51.060;3.638;2023-03-13T06:34:43;7.90;;;2.60;;
78612;SDS011;67933;51.060;3.638;2023-03-13T06:37:09;6.38;;;2.40;;
78612;SDS011;67933;51.060;3.638;2023-03-13T06:39:34;6.40;;;2.65;;
78612;SDS011;67933;51.060;3.638;2023-03-13T06:42:00;6.25;;;2.20;;
78612;SDS011;67933;51.060;3.638;2023-03-13T06:44:28;8.00;;;2.38;;
78612;SDS011;67933;51.060;3.638;2023-03-13T06:46:53;6.82;;;2.40;;
78612;SDS011;67933;51.060;3.638;2023-03-13T06:49:18;6.63;;;2.15;;
78612;SDS011;67933;51.060;3.638;2023-03-13T06:51:44;7.63;;;2.92;;
78612;SDS011;67933;51.060;3.638;2023-03-13T06:54:09;7.55;;;2.25;;
78612;SDS011;67933;51.060;3.638;2023-03-13T06:56:35;8.65;;;2.45;;
78612;SDS011;67933;51.060;3.638;2023-03-13T06:59:00;8.75;;;2.78;;
78612;SDS011;67933;51.060;3.638;2023-03-13T07:01:26;7.80;;;2.40;;
78612;SDS011;67933;51.060;3.638;2023-03-13T07:03:51;6.30;;;2.08;;
78612;SDS011;67933;51.060;3.638;2023-03-13T07:06:16;6.95;;;2.53;;
78612;SDS011;67933;51.060;3.638;2023-03-13T07:08:42;11.00;;;3.70;;
78612;SDS011;67933;51.060;3.638;2023-03-13T07:11:09;11.10;;;2.88;;
78612;SDS011;67933;51.060;3.638;2023-03-13T07:13:40;7.22;;;2.95;;
78612;SDS011;67933;51.060;3.638;2023-03-13T07:16:06;6.13;;;2.45;;
78612;SDS011;67933;51.060;3.638;2023-03-13T07:18:34;4.35;;;2.30;;
78612;SDS011;67933;51.060;3.638;2023-03-13T07:21:00;8.20;;;3.22;;
78612;SDS011;67933;51.060;3.638;2023-03-13T07:23:30;9.40;;;3.20;;
78612;SDS011;67933;51.060;3.638;2023-03-13T07:25:58;7.18;;;3.05;;
78612;SDS011;67933;51.060;3.638;2023-03-13T07:28:25;7.20;;;3.22;;
78612;SDS011;67933;51.060;3.638;2023-03-13T07:33:18;8.80;;;3.55;;
78612;SDS011;67933;51.060;3.638;2023-03-13T07:35:47;8.13;;;4.07;;
78612;SDS011;67933;51.060;3.638;2023-03-13T07:38:14;6.93;;;3.05;;
78612;SDS011;67933;51.060;3.638;2023-03-13T07:40:45;8.05;;;2.83;;
78612;SDS011;67933;51.060;3.638;2023-03-13T07:43:12;5.13;;;2.10;;
78612;SDS011;67933;51.060;3.638;2023-03-13T07:45:37;4.10;;;1.95;;
78612;SDS011;67933;51.060;3.638;2023-03-13T07:48:03;6.28;;;1.98;;
78612;SDS011;67933;51.060;3.638;2023-03-13T07:50:29;3.60;;;1.83;;
78612;SDS011;67933;51.060;3.638;2023-03-13T07:52:54;5.38;;;1.85;;
78612;SDS011;67933;51.060;3.638;2023-03-13T07:55:19;5.75;;;2.00;;
78612;SDS011;67933;51.060;3.638;2023-03-13T07:57:45;4.03;;;1.40;;
78612;SDS011;67933;51.060;3.638;2023-03-13T08:00:11;6.55;;;1.75;;
78612;SDS011;67933;51.060;3.638;2023-03-13T08:02:40;5.35;;;1.45;;
78612;SDS011;67933;51.060;3.638;2023-03-13T08:05:06;2.97;;;1.30;;
78612;SDS011;67933;51.060;3.638;2023-03-13T08:07:31;2.75;;;1.23;;
78612;SDS011;67933;51.060;3.638;2023-03-13T08:09:56;4.15;;;1.30;;
78612;SDS011;67933;51.060;3.638;2023-03-13T08:12:25;5.78;;;1.55;;
78612;SDS011;67933;51.060;3.638;2023-03-13T08:14:50;3.67;;;1.45;;
78612;SDS011;67933;51.060;3.638;2023-03-13T08:17:16;2.67;;;1.60;;
78612;SDS011;67933;51.060;3.638;2023-03-13T08:19:41;3.75;;;1.40;;
78612;SDS011;67933;51.060;3.638;2023-03-13T08:22:06;4.82;;;1.70;;
78612;SDS011;67933;51.060;3.638;2023-03-13T08:24:32;3.92;;;1.60;;
78612;SDS011;67933;51.060;3.638;2023-03-13T08:26:57;3.95;;;1.70;;
78612;SDS011;67933;51.060;3.638;2023-03-13T08:29:22;2.95;;;1.38;;
78612;SDS011;67933;51.060;3.638;2023-03-13T08:31:48;5.55;;;2.03;;
78612;SDS011;67933;51.060;3.638;2023-03-13T08:34:16;6.57;;;2.05;;
78612;SDS011;67933;51.060;3.638;2023-03-13T08:36:43;8.13;;;2.13;;
78612;SDS011;67933;51.060;3.638;2023-03-13T08:39:10;3.42;;;2.00;;
78612;SDS011;67933;51.060;3.638;2023-03-13T08:41:41;3.05;;;1.40;;
78612;SDS011;67933;51.060;3.638;2023-03-13T08:44:09;4.13;;;1.50;;
78612;SDS011;67933;51.060;3.638;2023-03-13T08:46:36;4.35;;;2.00;;
78612;SDS011;67933;51.060;3.638;2023-03-13T08:49:01;4.60;;;1.73;;
78612;SDS011;67933;51.060;3.638;2023-03-13T08:51:28;5.10;;;1.67;;
78612;SDS011;67933;51.060;3.638;2023-03-13T08:53:54;5.07;;;1.83;;
78612;SDS011;67933;51.060;3.638;2023-03-13T08:56:21;5.00;;;1.67;;
78612;SDS011;67933;51.060;3.638;2023-03-13T08:58:52;4.00;;;1.63;;
78612;SDS011;67933;51.060;3.638;2023-03-13T09:01:20;4.10;;;2.58;;
78612;SDS011;67933;51.060;3.638;2023-03-13T09:03:46;5.32;;;1.92;;
78612;SDS011;67933;51.060;3.638;2023-03-13T09:06:12;2.45;;;1.33;;
78612;SDS011;67933;51.060;3.638;2023-03-13T09:08:38;3.65;;;1.77;;
78612;SDS011;67933;51.060;3.638;2023-03-13T09:11:05;2.15;;;1.30;;
78612;SDS011;67933;51.060;3.638;2023-03-13T09:13:33;3.15;;;1.70;;
78612;SDS011;67933;51.060;3.638;2023-03-13T09:16:05;6.75;;;1.83;;
78612;SDS011;67933;51.060;3.638;2023-03-13T09:18:32;4.97;;;1.65;;
78612;SDS011;67933;51.060;3.638;2023-03-13T09:20:58;3.92;;;1.77;;
78612;SDS011;67933;51.060;3.638;2023-03-13T09:23:24;4.47;;;1.50;;
78612;SDS011;67933;51.060;3.638;2023-03-13T09:25:53;3.55;;;1.85;;
78612;SDS011;67933;51.060;3.638;2023-03-13T09:28:21;5.38;;;2.00;;
78612;SDS011;67933;51.060;3.638;2023-03-13T09:30:47;2.60;;;1.40;;
78612;SDS011;67933;51.060;3.638;2023-03-13T09:33:14;2.83;;;1.58;;
78612;SDS011;67933;51.060;3.638;2023-03-13T09:35:40;2.45;;;1.55;;
78612;SDS011;67933;51.060;3.638;2023-03-13T09:38:06;5.82;;;1.58;;
78612;SDS011;67933;51.060;3.638;2023-03-13T09:40:40;3.08;;;1.17;;
78612;SDS011;67933;51.060;3.638;2023-03-13T09:46:02;3.83;;;1.23;;
78612;SDS011;67933;51.060;3.638;2023-03-13T09:48:35;2.58;;;1.40;;
78612;SDS011;67933;51.060;3.638;2023-03-13T09:51:05;3.30;;;1.15;;
78612;SDS011;67933;51.060;3.638;2023-03-13T09:56:11;2.85;;;0.93;;
78612;SDS011;67933;51.060;3.638;2023-03-13T09:58:42;5.20;;;1.42;;
78612;SDS011;67933;51.060;3.638;2023-03-13T10:01:21;2.30;;;1.23;;
78612;SDS011;67933;51.060;3.638;2023-03-13T10:03:57;2.72;;;1.10;;
78612;SDS011;67933;51.060;3.638;2023-03-13T10:06:32;2.33;;;1.02;;
78612;SDS011;67933;51.060;3.638;2023-03-13T10:08:59;4.03;;;1.40;;
78612;SDS011;67933;51.060;3.638;2023-03-13T10:11:43;2.88;;;1.00;;
78612;SDS011;67933;51.060;3.638;2023-03-13T10:14:24;3.10;;;0.98;;
78612;SDS011;67933;51.060;3.638;2023-03-13T10:19:35;1.50;;;0.77;;
78612;SDS011;67933;51.060;3.638;2023-03-13T10:22:11;4.38;;;0.95;;
78612;SDS011;67933;51.060;3.638;2023-03-13T10:24:50;5.57;;;1.25;;
78612;SDS011;67933;51.060;3.638;2023-03-13T10:27:28;3.13;;;0.70;;
78612;SDS011;67933;51.060;3.638;2023-03-13T10:29:56;3.78;;;0.77;;
78612;SDS011;67933;51.060;3.638;2023-03-13T10:32:22;3.75;;;0.95;;
78612;SDS011;67933;51.060;3.638;2023-03-13T10:34:57;4.50;;;1.40;;
78612;SDS011;67933;51.060;3.638;2023-03-13T10:37:32;3.95;;;1.10;;
78612;SDS011;67933;51.060;3.638;2023-03-13T10:40:18;3.35;;;1.23;;
78612;SDS011;67933;51.060;3.638;2023-03-13T10:42:49;3.30;;;0.70;;
78612;SDS011;67933;51.060;3.638;2023-03-13T10:45:20;3.15;;;1.15;;
78612;SDS011;67933;51.060;3.638;2023-03-13T10:47:54;2.63;;;0.90;;
78612;SDS011;67933;51.060;3.638;2023-03-13T10:52:48;3.35;;;0.90;;
78612;SDS011;67933;51.060;3.638;2023-03-13T10:55:17;3.53;;;0.95;;
78612;SDS011;67933;51.060;3.638;2023-03-13T10:57:56;3.55;;;1.10;;
78612;SDS011;67933;51.060;3.638;2023-03-13T11:03:16;2.53;;;1.00;;
78612;SDS011;67933;51.060;3.638;2023-03-13T11:06:05;2.85;;;0.80;;
78612;SDS011;67933;51.060;3.638;2023-03-13T11:08:33;2.45;;;1.00;;
78612;SDS011;67933;51.060;3.638;2023-03-13T11:11:01;3.33;;;0.80;;
78612;SDS011;67933;51.060;3.638;2023-03-13T11:13:35;2.92;;;0.70;;
78612;SDS011;67933;51.060;3.638;2023-03-13T11:16:23;3.25;;;0.73;;
78612;SDS011;67933;51.060;3.638;2023-03-13T11:24:43;4.97;;;1.10;;
78612;SDS011;67933;51.060;3.638;2023-03-13T11:29:52;1.50;;;0.80;;
78612;SDS011;67933;51.060;3.638;2023-03-13T11:32:25;3.83;;;1.05;;
78612;SDS011;67933;51.060;3.638;2023-03-13T11:35:03;3.70;;;0.70;;
78612;SDS011;67933;51.060;3.638;2023-03-13T11:37:43;4.03;;;1.23;;
78612;SDS011;67933;51.060;3.638;2023-03-13T11:40:19;4.20;;;1.00;;
78612;SDS011;67933;51.060;3.638;2023-03-13T11:45:27;3.47;;;1.00;;
78612;SDS011;67933;51.060;3.638;2023-03-13T12:02:30;9.27;;;1.65;;
78612;SDS011;67933;51.060;3.638;2023-03-13T12:05:07;5.40;;;1.38;;
78612;SDS011;67933;51.060;3.638;2023-03-13T12:07:40;7.90;;;1.20;;
78612;SDS011;67933;51.060;3.638;2023-03-13T12:10:36;5.40;;;1.45;;
78612;SDS011;67933;51.060;3.638;2023-03-13T12:15:43;6.03;;;1.50;;
78612;SDS011;67933;51.060;3.638;2023-03-13T12:18:22;6.63;;;1.40;;
78612;SDS011;67933;51.060;3.638;2023-03-13T12:21:14;6.75;;;1.60;;
78612;SDS011;67933;51.060;3.638;2023-03-13T12:24:05;5.70;;;1.83;;
78612;SDS011;67933;51.060;3.638;2023-03-13T12:32:13;3.67;;;1.35;;
78612;SDS011;67933;51.060;3.638;2023-03-13T12:38:38;5.43;;;1.50;;
78612;SDS011;67933;51.060;3.638;2023-03-13T12:41:00;6.80;;;1.63;;
78612;SDS011;67933;51.060;3.638;2023-03-13T12:43:37;4.35;;;1.38;;
78612;SDS011;67933;51.060;3.638;2023-03-13T12:59:27;9.25;;;1.85;;
78612;SDS011;67933;51.060;3.638;2023-03-13T13:01:57;9.27;;;1.63;;
78612;SDS011;67933;51.060;3.638;2023-03-13T13:04:30;8.40;;;2.03;;
78612;SDS011;67933;51.060;3.638;2023-03-13T13:07:06;7.47;;;1.98;;
78612;SDS011;67933;51.060;3.638;2023-03-13T13:09:58;11.15;;;2.35;;
78612;SDS011;67933;51.060;3.638;2023-03-13T13:12:27;10.25;;;2.03;;
78612;SDS011;67933;51.060;3.638;2023-03-13T13:14:57;6.88;;;1.67;;
78612;SDS011;67933;51.060;3.638;2023-03-13T13:17:33;6.18;;;1.92;;
78612;SDS011;67933;51.060;3.638;2023-03-13T13:20:29;5.45;;;1.65;;
78612;SDS011;67933;51.060;3.638;2023-03-13T13:29:41;11.40;;;2.00;;
78612;SDS011;67933;51.060;3.638;2023-03-13T13:34:52;7.60;;;1.65;;
78612;SDS011;67933;51.060;3.638;2023-03-13T13:39:45;8.35;;;1.75;;
78612;SDS011;67933;51.060;3.638;2023-03-13T13:45:17;9.95;;;2.13;;
78612;SDS011;67933;51.060;3.638;2023-03-13T13:47:44;9.40;;;2.00;;
78612;SDS011;67933;51.060;3.638;2023-03-13T13:50:16;7.10;;;2.10;;
78612;SDS011;67933;51.060;3.638;2023-03-13T13:52:48;10.02;;;1.80;;
78612;SDS011;67933;51.060;3.638;2023-03-13T14:00:52;11.93;;;3.03;;
78612;SDS011;67933;51.060;3.638;2023-03-13T14:03:23;14.13;;;2.67;;
78612;SDS011;67933;51.060;3.638;2023-03-13T14:05:55;9.57;;;2.63;;
78612;SDS011;67933;51.060;3.638;2023-03-13T14:08:26;11.75;;;2.47;;
78612;SDS011;67933;51.060;3.638;2023-03-13T14:13:38;9.80;;;2.40;;
78612;SDS011;67933;51.060;3.638;2023-03-13T14:16:23;8.85;;;2.15;;
78612;SDS011;67933;51.060;3.638;2023-03-13T14:18:50;12.65;;;2.85;;
78612;SDS011;67933;51.060;3.638;2023-03-13T14:21:20;8.65;;;3.10;;
78612;SDS011;67933;51.060;3.638;2023-03-13T14:23:47;13.13;;;2.30;;
78612;SDS011;67933;51.060;3.638;2023-03-13T14:28:40;8.90;;;2.55;;
78612;SDS011;67933;51.060;3.638;2023-03-13T14:31:07;10.40;;;2.17;;
78612;SDS011;67933;51.060;3.638;2023-03-13T14:33:33;12.93;;;2.42;;
78612;SDS011;67933;51.060;3.638;2023-03-13T14:35:59;10.95;;;2.28;;
78612;SDS011;67933;51.060;3.638;2023-03-13T14:38:26;11.82;;;2.47;;
78612;SDS011;67933;51.060;3.638;2023-03-13T14:40:56;9.85;;;2.40;;
78612;SDS011;67933;51.060;3.638;2023-03-13T14:43:35;11.00;;;3.03;;
78612;SDS011;67933;51.060;3.638;2023-03-13T14:49:07;9.75;;;2.33;;
78612;SDS011;67933;51.060;3.638;2023-03-13T14:51:39;10.88;;;2.80;;
78612;SDS011;67933;51.060;3.638;2023-03-13T14:54:19;9.50;;;1.90;;
78612;SDS011;67933;51.060;3.638;2023-03-13T14:57:00;11.57;;;3.20;;
78612;SDS011;67933;51.060;3.638;2023-03-13T14:59:40;11.63;;;2.83;;
78612;SDS011;67933;51.060;3.638;2023-03-13T15:02:23;12.02;;;2.58;;
78612;SDS011;67933;51.060;3.638;2023-03-13T15:04:52;14.65;;;2.53;;
78612;SDS011;67933;51.060;3.638;2023-03-13T15:10:20;10.55;;;1.75;;
78612;SDS011;67933;51.060;3.638;2023-03-13T15:13:14;9.05;;;1.95;;
78612;SDS011;67933;51.060;3.638;2023-03-13T15:15:50;7.75;;;1.95;;
78612;SDS011;67933;51.060;3.638;2023-03-13T15:18:21;16.58;;;2.35;;
78612;SDS011;67933;51.060;3.638;2023-03-13T15:23:48;10.10;;;2.28;;
78612;SDS011;67933;51.060;3.638;2023-03-13T15:26:16;9.57;;;2.00;;
78612;SDS011;67933;51.060;3.638;2023-03-13T15:28:42;10.70;;;2.67;;
78612;SDS011;67933;51.060;3.638;2023-03-13T15:31:09;11.05;;;2.33;;
78612;SDS011;67933;51.060;3.638;2023-03-13T15:33:36;8.90;;;2.20;;
78612;SDS011;67933;51.060;3.638;2023-03-13T15:36:03;11.82;;;2.92;;
78612;SDS011;67933;51.060;3.638;2023-03-13T15:38:29;10.18;;;2.80;;
78612;SDS011;67933;51.060;3.638;2023-03-13T15:40:54;10.68;;;2.30;;
78612;SDS011;67933;51.060;3.638;2023-03-13T15:43:22;15.05;;;3.17;;
78612;SDS011;67933;51.060;3.638;2023-03-13T15:45:48;7.15;;;2.47;;
78612;SDS011;67933;51.060;3.638;2023-03-13T15:48:18;9.68;;;2.30;;
78612;SDS011;67933;51.060;3.638;2023-03-13T15:50:48;10.48;;;2.13;;
78612;SDS011;67933;51.060;3.638;2023-03-13T15:53:19;6.13;;;1.90;;
78612;SDS011;67933;51.060;3.638;2023-03-13T15:55:48;9.73;;;2.10;;
78612;SDS011;67933;51.060;3.638;2023-03-13T15:58:14;10.48;;;2.45;;
78612;SDS011;67933;51.060;3.638;2023-03-13T16:00:40;15.70;;;2.90;;
78612;SDS011;67933;51.060;3.638;2023-03-13T16:03:14;8.23;;;1.80;;
78612;SDS011;67933;51.060;3.638;2023-03-13T16:05:41;9.18;;;2.08;;
78612;SDS011;67933;51.060;3.638;2023-03-13T16:08:14;9.13;;;2.00;;
78612;SDS011;67933;51.060;3.638;2023-03-13T16:13:07;9.40;;;2.20;;
78612;SDS011;67933;51.060;3.638;2023-03-13T16:15:33;9.63;;;2.20;;
78612;SDS011;67933;51.060;3.638;2023-03-13T16:17:59;8.93;;;1.88;;
78612;SDS011;67933;51.060;3.638;2023-03-13T16:20:24;8.73;;;1.73;;
78612;SDS011;67933;51.060;3.638;2023-03-13T16:22:53;9.25;;;2.10;;
78612;SDS011;67933;51.060;3.638;2023-03-13T16:25:19;10.40;;;1.90;;
78612;SDS011;67933;51.060;3.638;2023-03-13T16:27:46;12.90;;;2.53;;
78612;SDS011;67933;51.060;3.638;2023-03-13T16:30:16;7.30;;;1.92;;
78612;SDS011;67933;51.060;3.638;2023-03-13T16:32:49;8.55;;;2.00;;
78612;SDS011;67933;51.060;3.638;2023-03-13T16:35:15;8.95;;;2.00;;
78612;SDS011;67933;51.060;3.638;2023-03-13T16:37:41;9.13;;;1.80;;
78612;SDS011;67933;51.060;3.638;2023-03-13T16:40:26;12.30;;;2.30;;
78612;SDS011;67933;51.060;3.638;2023-03-13T16:45:19;9.33;;;2.10;;
78612;SDS011;67933;51.060;3.638;2023-03-13T16:47:44;10.68;;;2.00;;
78612;SDS011;67933;51.060;3.638;2023-03-13T16:53:00;9.18;;;2.42;;
78612;SDS011;67933;51.060;3.638;2023-03-13T16:55:26;11.07;;;2.53;;